sensor_id;sensor_type;location;lat;lon;timestamp;P1;durP1;ratioP1;P2;durP2;ratioP2
56399;SDS011;42298;53.638;9.876;2023-05-10T00:01:15;8.57;;;4.30;;
56399;SDS011;42298;53.638;9.876;2023-05-10T00:03:40;7.47;;;3.90;;
56399;SDS011;42298;53.638;9.876;2023-05-10T00:06:06;9.30;;;4.05;;
56399;SDS011;42298;53.638;9.876;2023-05-10T00:08:31;6.75;;;3.35;;
56399;SDS011;42298;53.638;9.876;2023-05-10T00:11:00;7.05;;;3.67;;
56399;SDS011;42298;53.638;9.876;2023-05-10T00:13:25;6.82;;;3.90;;
56399;SDS011;42298;53.638;9.876;2023-05-10T00:15:50;6.03;;;3.67;;
56399;SDS011;42298;53.638;9.876;2023-05-10T00:18:16;8.82;;;3.67;;
56399;SDS011;42298;53.638;9.876;2023-05-10T00:20:41;7.35;;;3.95;;
56399;SDS011;42298;53.638;9.876;2023-05-10T00:23:06;8.63;;;3.88;;
56399;SDS011;42298;53.638;9.876;2023-05-10T00:25:32;11.10;;;4.30;;
56399;SDS011;42298;53.638;9.876;2023-05-10T00:27:57;7.47;;;4.10;;
56399;SDS011;42298;53.638;9.876;2023-05-10T00:30:23;7.85;;;3.90;;
56399;SDS011;42298;53.638;9.876;2023-05-10T00:32:48;10.63;;;4.50;;
56399;SDS011;42298;53.638;9.876;2023-05-10T00:35:14;6.97;;;3.88;;
56399;SDS011;42298;53.638;9.876;2023-05-10T00:37:40;7.75;;;3.95;;
56399;SDS011;42298;53.638;9.876;2023-05-10T00:40:06;6.15;;;3.55;;
56399;SDS011;42298;53.638;9.876;2023-05-10T00:42:32;9.43;;;3.88;;
56399;SDS011;42298;53.638;9.876;2023-05-10T00:44:57;6.05;;;3.67;;
56399;SDS011;42298;53.638;9.876;2023-05-10T00:47:23;11.57;;;4.20;;
56399;SDS011;42298;53.638;9.876;2023-05-10T00:49:51;7.30;;;3.88;;
56399;SDS011;42298;53.638;9.876;2023-05-10T00:52:17;6.50;;;3.72;;
56399;SDS011;42298;53.638;9.876;2023-05-10T00:54:42;7.82;;;3.67;;
56399;SDS011;42298;53.638;9.876;2023-05-10T00:57:07;8.85;;;4.05;;
56399;SDS011;42298;53.638;9.876;2023-05-10T00:59:33;8.93;;;4.05;;
56399;SDS011;42298;53.638;9.876;2023-05-10T01:01:59;9.52;;;4.00;;
56399;SDS011;42298;53.638;9.876;2023-05-10T01:04:24;9.13;;;3.88;;
56399;SDS011;42298;53.638;9.876;2023-05-10T01:06:53;8.82;;;4.05;;
56399;SDS011;42298;53.638;9.876;2023-05-10T01:09:19;6.40;;;3.90;;
56399;SDS011;42298;53.638;9.876;2023-05-10T01:11:47;8.70;;;4.40;;
56399;SDS011;42298;53.638;9.876;2023-05-10T01:14:14;9.80;;;3.70;;
56399;SDS011;42298;53.638;9.876;2023-05-10T01:16:42;7.90;;;4.38;;
56399;SDS011;42298;53.638;9.876;2023-05-10T01:19:22;7.93;;;4.15;;
56399;SDS011;42298;53.638;9.876;2023-05-10T01:28:29;8.45;;;4.20;;
56399;SDS011;42298;53.638;9.876;2023-05-10T01:31:03;7.80;;;4.28;;
56399;SDS011;42298;53.638;9.876;2023-05-10T01:33:38;7.57;;;4.20;;
56399;SDS011;42298;53.638;9.876;2023-05-10T01:41:41;9.88;;;4.35;;
56399;SDS011;42298;53.638;9.876;2023-05-10T01:47:17;10.68;;;4.22;;
56399;SDS011;42298;53.638;9.876;2023-05-10T01:50:06;9.82;;;4.03;;
56399;SDS011;42298;53.638;9.876;2023-05-10T01:52:38;8.25;;;4.13;;
56399;SDS011;42298;53.638;9.876;2023-05-10T01:55:08;10.18;;;4.65;;
56399;SDS011;42298;53.638;9.876;2023-05-10T01:57:37;7.50;;;4.38;;
56399;SDS011;42298;53.638;9.876;2023-05-10T02:00:04;7.18;;;4.00;;
56399;SDS011;42298;53.638;9.876;2023-05-10T02:02:39;8.02;;;4.20;;
56399;SDS011;42298;53.638;9.876;2023-05-10T02:05:07;8.82;;;4.10;;
56399;SDS011;42298;53.638;9.876;2023-05-10T02:07:35;7.55;;;3.92;;
56399;SDS011;42298;53.638;9.876;2023-05-10T02:10:02;7.60;;;4.05;;
56399;SDS011;42298;53.638;9.876;2023-05-10T02:12:29;10.35;;;4.13;;
56399;SDS011;42298;53.638;9.876;2023-05-10T02:15:00;9.57;;;4.00;;
56399;SDS011;42298;53.638;9.876;2023-05-10T02:17:27;8.18;;;4.38;;
56399;SDS011;42298;53.638;9.876;2023-05-10T02:19:54;9.25;;;4.55;;
56399;SDS011;42298;53.638;9.876;2023-05-10T02:22:22;11.55;;;4.22;;
56399;SDS011;42298;53.638;9.876;2023-05-10T02:24:49;10.63;;;4.38;;
56399;SDS011;42298;53.638;9.876;2023-05-10T02:27:15;9.40;;;4.18;;
56399;SDS011;42298;53.638;9.876;2023-05-10T02:29:44;8.57;;;4.47;;
56399;SDS011;42298;53.638;9.876;2023-05-10T02:32:11;7.80;;;4.30;;
56399;SDS011;42298;53.638;9.876;2023-05-10T02:34:38;7.88;;;4.13;;
56399;SDS011;42298;53.638;9.876;2023-05-10T02:37:03;7.25;;;3.85;;
56399;SDS011;42298;53.638;9.876;2023-05-10T02:39:30;8.35;;;4.05;;
56399;SDS011;42298;53.638;9.876;2023-05-10T02:41:57;9.35;;;4.18;;
56399;SDS011;42298;53.638;9.876;2023-05-10T02:44:24;7.40;;;4.28;;
56399;SDS011;42298;53.638;9.876;2023-05-10T02:46:53;7.70;;;4.13;;
56399;SDS011;42298;53.638;9.876;2023-05-10T02:49:22;8.63;;;4.30;;
56399;SDS011;42298;53.638;9.876;2023-05-10T02:51:49;8.48;;;4.35;;
56399;SDS011;42298;53.638;9.876;2023-05-10T02:54:20;7.47;;;4.07;;
56399;SDS011;42298;53.638;9.876;2023-05-10T02:56:59;10.15;;;4.60;;
56399;SDS011;42298;53.638;9.876;2023-05-10T02:59:28;9.93;;;4.70;;
56399;SDS011;42298;53.638;9.876;2023-05-10T03:01:54;9.02;;;4.50;;
56399;SDS011;42298;53.638;9.876;2023-05-10T03:04:19;10.15;;;3.97;;
56399;SDS011;42298;53.638;9.876;2023-05-10T03:06:44;7.97;;;4.18;;
56399;SDS011;42298;53.638;9.876;2023-05-10T03:09:11;8.65;;;4.20;;
56399;SDS011;42298;53.638;9.876;2023-05-10T03:11:47;7.95;;;4.10;;
56399;SDS011;42298;53.638;9.876;2023-05-10T03:17:25;8.43;;;4.32;;
56399;SDS011;42298;53.638;9.876;2023-05-10T03:20:03;9.50;;;4.28;;
56399;SDS011;42298;53.638;9.876;2023-05-10T03:22:34;8.82;;;4.18;;
56399;SDS011;42298;53.638;9.876;2023-05-10T03:25:04;7.47;;;4.38;;
56399;SDS011;42298;53.638;9.876;2023-05-10T03:27:31;9.30;;;4.22;;
56399;SDS011;42298;53.638;9.876;2023-05-10T03:29:57;11.75;;;4.63;;
56399;SDS011;42298;53.638;9.876;2023-05-10T03:32:23;7.75;;;4.60;;
56399;SDS011;42298;53.638;9.876;2023-05-10T03:34:49;7.57;;;4.20;;
56399;SDS011;42298;53.638;9.876;2023-05-10T03:37:14;7.50;;;4.32;;
56399;SDS011;42298;53.638;9.876;2023-05-10T03:39:39;8.75;;;4.50;;
56399;SDS011;42298;53.638;9.876;2023-05-10T03:42:06;9.15;;;4.85;;
56399;SDS011;42298;53.638;9.876;2023-05-10T03:44:32;9.75;;;4.55;;
56399;SDS011;42298;53.638;9.876;2023-05-10T03:46:58;6.32;;;4.43;;
56399;SDS011;42298;53.638;9.876;2023-05-10T03:49:23;8.25;;;4.20;;
56399;SDS011;42298;53.638;9.876;2023-05-10T03:51:49;7.68;;;4.35;;
56399;SDS011;42298;53.638;9.876;2023-05-10T03:54:14;8.48;;;4.57;;
56399;SDS011;42298;53.638;9.876;2023-05-10T03:56:40;8.48;;;4.40;;
56399;SDS011;42298;53.638;9.876;2023-05-10T03:59:05;8.80;;;4.40;;
56399;SDS011;42298;53.638;9.876;2023-05-10T04:01:34;8.57;;;4.47;;
56399;SDS011;42298;53.638;9.876;2023-05-10T04:03:59;10.30;;;4.60;;
56399;SDS011;42298;53.638;9.876;2023-05-10T04:06:25;8.73;;;4.47;;
56399;SDS011;42298;53.638;9.876;2023-05-10T04:08:51;8.18;;;4.60;;
56399;SDS011;42298;53.638;9.876;2023-05-10T04:11:16;10.75;;;4.90;;
56399;SDS011;42298;53.638;9.876;2023-05-10T04:13:41;10.00;;;4.90;;
56399;SDS011;42298;53.638;9.876;2023-05-10T04:16:08;10.35;;;4.70;;
56399;SDS011;42298;53.638;9.876;2023-05-10T04:18:33;12.13;;;4.65;;
56399;SDS011;42298;53.638;9.876;2023-05-10T04:20:58;10.25;;;4.30;;
56399;SDS011;42298;53.638;9.876;2023-05-10T04:23:24;8.25;;;4.22;;
56399;SDS011;42298;53.638;9.876;2023-05-10T04:25:49;8.65;;;4.60;;
56399;SDS011;42298;53.638;9.876;2023-05-10T04:28:14;7.28;;;4.25;;
56399;SDS011;42298;53.638;9.876;2023-05-10T04:30:40;9.38;;;4.53;;
56399;SDS011;42298;53.638;9.876;2023-05-10T04:33:05;9.60;;;4.25;;
56399;SDS011;42298;53.638;9.876;2023-05-10T04:35:31;8.23;;;4.65;;
56399;SDS011;42298;53.638;9.876;2023-05-10T04:37:56;8.32;;;4.88;;
56399;SDS011;42298;53.638;9.876;2023-05-10T04:40:21;10.00;;;4.55;;
56399;SDS011;42298;53.638;9.876;2023-05-10T04:42:47;11.85;;;5.63;;
56399;SDS011;42298;53.638;9.876;2023-05-10T04:45:12;9.75;;;4.78;;
56399;SDS011;42298;53.638;9.876;2023-05-10T04:47:42;7.25;;;4.22;;
56399;SDS011;42298;53.638;9.876;2023-05-10T04:50:07;8.77;;;4.45;;
56399;SDS011;42298;53.638;9.876;2023-05-10T04:52:33;8.48;;;4.20;;
56399;SDS011;42298;53.638;9.876;2023-05-10T04:54:58;11.43;;;4.60;;
56399;SDS011;42298;53.638;9.876;2023-05-10T04:57:23;9.13;;;4.53;;
56399;SDS011;42298;53.638;9.876;2023-05-10T04:59:49;7.15;;;4.22;;
56399;SDS011;42298;53.638;9.876;2023-05-10T05:02:14;8.18;;;4.35;;
56399;SDS011;42298;53.638;9.876;2023-05-10T05:04:39;8.75;;;4.65;;
56399;SDS011;42298;53.638;9.876;2023-05-10T05:07:05;9.30;;;4.15;;
56399;SDS011;42298;53.638;9.876;2023-05-10T05:09:30;12.90;;;4.40;;
56399;SDS011;42298;53.638;9.876;2023-05-10T05:11:57;9.07;;;4.20;;
56399;SDS011;42298;53.638;9.876;2023-05-10T05:14:22;8.80;;;4.20;;
56399;SDS011;42298;53.638;9.876;2023-05-10T05:16:50;7.05;;;3.97;;
56399;SDS011;42298;53.638;9.876;2023-05-10T05:19:15;7.95;;;4.10;;
56399;SDS011;42298;53.638;9.876;2023-05-10T05:21:41;11.02;;;4.40;;
56399;SDS011;42298;53.638;9.876;2023-05-10T05:24:06;9.45;;;4.30;;
56399;SDS011;42298;53.638;9.876;2023-05-10T05:26:32;7.45;;;3.90;;
56399;SDS011;42298;53.638;9.876;2023-05-10T05:28:57;9.35;;;4.05;;
56399;SDS011;42298;53.638;9.876;2023-05-10T05:31:22;8.75;;;3.97;;
56399;SDS011;42298;53.638;9.876;2023-05-10T05:33:48;7.70;;;4.15;;
56399;SDS011;42298;53.638;9.876;2023-05-10T05:36:14;11.15;;;5.05;;
56399;SDS011;42298;53.638;9.876;2023-05-10T05:38:40;9.02;;;4.60;;
56399;SDS011;42298;53.638;9.876;2023-05-10T05:41:05;7.20;;;4.00;;
56399;SDS011;42298;53.638;9.876;2023-05-10T05:43:30;8.98;;;4.20;;
56399;SDS011;42298;53.638;9.876;2023-05-10T05:45:56;8.70;;;4.47;;
56399;SDS011;42298;53.638;9.876;2023-05-10T05:51:41;8.70;;;4.28;;
56399;SDS011;42298;53.638;9.876;2023-05-10T05:54:07;7.45;;;4.18;;
56399;SDS011;42298;53.638;9.876;2023-05-10T05:56:32;12.05;;;4.53;;
56399;SDS011;42298;53.638;9.876;2023-05-10T05:58:57;10.85;;;5.15;;
56399;SDS011;42298;53.638;9.876;2023-05-10T06:01:23;12.35;;;4.53;;
56399;SDS011;42298;53.638;9.876;2023-05-10T06:03:48;9.52;;;4.82;;
56399;SDS011;42298;53.638;9.876;2023-05-10T06:06:14;9.18;;;4.60;;
56399;SDS011;42298;53.638;9.876;2023-05-10T06:08:39;8.98;;;4.13;;
56399;SDS011;42298;53.638;9.876;2023-05-10T06:11:05;11.27;;;5.07;;
56399;SDS011;42298;53.638;9.876;2023-05-10T06:13:30;8.93;;;4.35;;
56399;SDS011;42298;53.638;9.876;2023-05-10T06:15:59;10.15;;;4.88;;
56399;SDS011;42298;53.638;9.876;2023-05-10T06:18:26;8.10;;;4.10;;
56399;SDS011;42298;53.638;9.876;2023-05-10T06:20:51;9.75;;;4.45;;
56399;SDS011;42298;53.638;9.876;2023-05-10T06:23:17;9.57;;;4.82;;
56399;SDS011;42298;53.638;9.876;2023-05-10T06:25:43;8.23;;;4.63;;
56399;SDS011;42298;53.638;9.876;2023-05-10T06:28:09;8.05;;;4.40;;
56399;SDS011;42298;53.638;9.876;2023-05-10T06:30:35;10.63;;;4.50;;
56399;SDS011;42298;53.638;9.876;2023-05-10T06:33:00;9.95;;;4.40;;
56399;SDS011;42298;53.638;9.876;2023-05-10T06:35:26;9.35;;;4.72;;
56399;SDS011;42298;53.638;9.876;2023-05-10T06:37:51;12.35;;;4.40;;
56399;SDS011;42298;53.638;9.876;2023-05-10T06:40:17;11.85;;;4.97;;
56399;SDS011;42298;53.638;9.876;2023-05-10T06:42:43;8.57;;;4.72;;
56399;SDS011;42298;53.638;9.876;2023-05-10T06:45:09;9.02;;;4.28;;
56399;SDS011;42298;53.638;9.876;2023-05-10T06:47:35;10.63;;;4.80;;
56399;SDS011;42298;53.638;9.876;2023-05-10T06:50:00;10.77;;;5.22;;
56399;SDS011;42298;53.638;9.876;2023-05-10T06:52:26;7.57;;;4.53;;
56399;SDS011;42298;53.638;9.876;2023-05-10T06:54:52;7.57;;;4.20;;
56399;SDS011;42298;53.638;9.876;2023-05-10T06:57:18;8.60;;;4.53;;
56399;SDS011;42298;53.638;9.876;2023-05-10T06:59:44;9.55;;;4.60;;
56399;SDS011;42298;53.638;9.876;2023-05-10T07:02:09;8.90;;;4.25;;
56399;SDS011;42298;53.638;9.876;2023-05-10T07:04:35;9.20;;;4.55;;
56399;SDS011;42298;53.638;9.876;2023-05-10T07:07:00;9.30;;;4.10;;
56399;SDS011;42298;53.638;9.876;2023-05-10T07:09:25;8.55;;;4.82;;
56399;SDS011;42298;53.638;9.876;2023-05-10T07:11:51;8.98;;;4.70;;
56399;SDS011;42298;53.638;9.876;2023-05-10T07:14:18;10.68;;;4.32;;
56399;SDS011;42298;53.638;9.876;2023-05-10T07:16:45;10.18;;;5.00;;
56399;SDS011;42298;53.638;9.876;2023-05-10T07:19:10;11.30;;;4.50;;
56399;SDS011;42298;53.638;9.876;2023-05-10T07:21:36;8.75;;;5.07;;
56399;SDS011;42298;53.638;9.876;2023-05-10T07:24:04;7.07;;;4.72;;
56399;SDS011;42298;53.638;9.876;2023-05-10T07:26:29;9.82;;;5.03;;
56399;SDS011;42298;53.638;9.876;2023-05-10T07:28:57;8.27;;;4.55;;
56399;SDS011;42298;53.638;9.876;2023-05-10T07:31:22;9.30;;;4.45;;
56399;SDS011;42298;53.638;9.876;2023-05-10T07:33:48;9.07;;;4.57;;
56399;SDS011;42298;53.638;9.876;2023-05-10T07:36:13;8.10;;;4.60;;
56399;SDS011;42298;53.638;9.876;2023-05-10T07:38:38;9.65;;;4.53;;
56399;SDS011;42298;53.638;9.876;2023-05-10T07:41:04;6.60;;;4.35;;
56399;SDS011;42298;53.638;9.876;2023-05-10T07:43:31;10.93;;;5.20;;
56399;SDS011;42298;53.638;9.876;2023-05-10T07:45:56;9.73;;;4.63;;
56399;SDS011;42298;53.638;9.876;2023-05-10T07:48:22;9.82;;;5.32;;
56399;SDS011;42298;53.638;9.876;2023-05-10T07:50:47;10.02;;;4.78;;
56399;SDS011;42298;53.638;9.876;2023-05-10T07:53:13;11.55;;;4.88;;
56399;SDS011;42298;53.638;9.876;2023-05-10T07:55:38;9.35;;;4.70;;
56399;SDS011;42298;53.638;9.876;2023-05-10T07:58:05;7.32;;;4.30;;
56399;SDS011;42298;53.638;9.876;2023-05-10T08:00:32;13.88;;;4.70;;
56399;SDS011;42298;53.638;9.876;2023-05-10T08:02:57;10.48;;;4.97;;
56399;SDS011;42298;53.638;9.876;2023-05-10T08:05:23;9.57;;;4.53;;
56399;SDS011;42298;53.638;9.876;2023-05-10T08:07:48;10.15;;;4.70;;
56399;SDS011;42298;53.638;9.876;2023-05-10T08:10:13;10.82;;;4.88;;
56399;SDS011;42298;53.638;9.876;2023-05-10T08:12:39;9.93;;;5.32;;
56399;SDS011;42298;53.638;9.876;2023-05-10T08:15:04;11.07;;;4.70;;
56399;SDS011;42298;53.638;9.876;2023-05-10T08:17:31;8.93;;;4.40;;
56399;SDS011;42298;53.638;9.876;2023-05-10T08:19:57;11.10;;;4.75;;
56399;SDS011;42298;53.638;9.876;2023-05-10T08:22:22;9.38;;;4.65;;
56399;SDS011;42298;53.638;9.876;2023-05-10T08:24:47;11.55;;;5.03;;
56399;SDS011;42298;53.638;9.876;2023-05-10T08:27:14;11.55;;;4.18;;
56399;SDS011;42298;53.638;9.876;2023-05-10T08:29:39;12.35;;;4.53;;
56399;SDS011;42298;53.638;9.876;2023-05-10T08:32:04;8.75;;;4.75;;
56399;SDS011;42298;53.638;9.876;2023-05-10T08:34:30;10.13;;;4.57;;
56399;SDS011;42298;53.638;9.876;2023-05-10T08:36:56;10.77;;;4.65;;
56399;SDS011;42298;53.638;9.876;2023-05-10T08:39:21;9.55;;;4.95;;
56399;SDS011;42298;53.638;9.876;2023-05-10T08:41:48;10.00;;;4.65;;
56399;SDS011;42298;53.638;9.876;2023-05-10T08:44:16;8.85;;;4.75;;
56399;SDS011;42298;53.638;9.876;2023-05-10T08:46:46;10.57;;;5.43;;
56399;SDS011;42298;53.638;9.876;2023-05-10T08:49:16;8.45;;;4.22;;
56399;SDS011;42298;53.638;9.876;2023-05-10T08:51:44;8.05;;;4.50;;
56399;SDS011;42298;53.638;9.876;2023-05-10T08:54:14;12.90;;;5.38;;
56399;SDS011;42298;53.638;9.876;2023-05-10T08:56:40;11.70;;;4.85;;
56399;SDS011;42298;53.638;9.876;2023-05-10T08:59:06;9.45;;;5.20;;
56399;SDS011;42298;53.638;9.876;2023-05-10T09:01:31;9.75;;;4.75;;
56399;SDS011;42298;53.638;9.876;2023-05-10T09:03:57;9.85;;;4.53;;
56399;SDS011;42298;53.638;9.876;2023-05-10T09:06:23;9.32;;;4.32;;
56399;SDS011;42298;53.638;9.876;2023-05-10T09:08:49;9.60;;;5.20;;
56399;SDS011;42298;53.638;9.876;2023-05-10T09:11:16;11.30;;;4.95;;
56399;SDS011;42298;53.638;9.876;2023-05-10T09:13:58;10.15;;;5.20;;
56399;SDS011;42298;53.638;9.876;2023-05-10T09:16:23;10.40;;;5.35;;
56399;SDS011;42298;53.638;9.876;2023-05-10T09:18:49;9.02;;;4.93;;
56399;SDS011;42298;53.638;9.876;2023-05-10T09:21:14;10.20;;;5.00;;
56399;SDS011;42298;53.638;9.876;2023-05-10T09:23:42;9.13;;;4.90;;
56399;SDS011;42298;53.638;9.876;2023-05-10T09:26:09;11.02;;;5.13;;
56399;SDS011;42298;53.638;9.876;2023-05-10T09:28:34;8.68;;;5.18;;
56399;SDS011;42298;53.638;9.876;2023-05-10T09:31:42;34.53;;;9.02;;
56399;SDS011;42298;53.638;9.876;2023-05-10T09:34:21;23.60;;;7.50;;
56399;SDS011;42298;53.638;9.876;2023-05-10T09:36:55;13.63;;;6.07;;
56399;SDS011;42298;53.638;9.876;2023-05-10T09:39:37;13.98;;;5.70;;
56399;SDS011;42298;53.638;9.876;2023-05-10T09:42:03;13.60;;;6.40;;
56399;SDS011;42298;53.638;9.876;2023-05-10T09:44:33;12.43;;;5.93;;
56399;SDS011;42298;53.638;9.876;2023-05-10T09:46:59;16.33;;;7.00;;
56399;SDS011;42298;53.638;9.876;2023-05-10T09:49:30;22.58;;;7.63;;
56399;SDS011;42298;53.638;9.876;2023-05-10T09:51:59;9.70;;;5.75;;
56399;SDS011;42298;53.638;9.876;2023-05-10T09:54:29;12.40;;;6.03;;
56399;SDS011;42298;53.638;9.876;2023-05-10T09:56:54;24.95;;;9.13;;
56399;SDS011;42298;53.638;9.876;2023-05-10T09:59:20;23.23;;;7.80;;
56399;SDS011;42298;53.638;9.876;2023-05-10T10:01:50;12.77;;;6.47;;
56399;SDS011;42298;53.638;9.876;2023-05-10T10:04:17;11.80;;;6.70;;
56399;SDS011;42298;53.638;9.876;2023-05-10T10:06:45;10.65;;;5.93;;
56399;SDS011;42298;53.638;9.876;2023-05-10T10:09:10;13.85;;;6.43;;
56399;SDS011;42298;53.638;9.876;2023-05-10T10:11:36;10.18;;;5.57;;
56399;SDS011;42298;53.638;9.876;2023-05-10T10:14:03;10.65;;;6.78;;
56399;SDS011;42298;53.638;9.876;2023-05-10T10:16:29;12.40;;;6.88;;
56399;SDS011;42298;53.638;9.876;2023-05-10T10:18:55;12.98;;;7.63;;
56399;SDS011;42298;53.638;9.876;2023-05-10T10:21:21;14.95;;;7.43;;
56399;SDS011;42298;53.638;9.876;2023-05-10T10:23:47;17.23;;;8.73;;
56399;SDS011;42298;53.638;9.876;2023-05-10T10:26:13;11.45;;;6.95;;
56399;SDS011;42298;53.638;9.876;2023-05-10T10:31:36;14.23;;;8.05;;
56399;SDS011;42298;53.638;9.876;2023-05-10T10:34:07;12.45;;;7.55;;
56399;SDS011;42298;53.638;9.876;2023-05-10T10:36:42;12.77;;;7.68;;
56399;SDS011;42298;53.638;9.876;2023-05-10T10:39:10;12.70;;;7.75;;
56399;SDS011;42298;53.638;9.876;2023-05-10T10:49:37;12.30;;;8.18;;
56399;SDS011;42298;53.638;9.876;2023-05-10T10:52:21;13.40;;;7.47;;
56399;SDS011;42298;53.638;9.876;2023-05-10T10:55:06;13.10;;;8.20;;
56399;SDS011;42298;53.638;9.876;2023-05-10T11:05:23;16.10;;;8.90;;
56399;SDS011;42298;53.638;9.876;2023-05-10T11:10:53;13.48;;;9.75;;
56399;SDS011;42298;53.638;9.876;2023-05-10T11:21:31;13.63;;;8.68;;
56399;SDS011;42298;53.638;9.876;2023-05-10T11:23:58;15.23;;;9.32;;
56399;SDS011;42298;53.638;9.876;2023-05-10T11:26:25;13.48;;;8.20;;
56399;SDS011;42298;53.638;9.876;2023-05-10T11:28:55;15.40;;;7.90;;
56399;SDS011;42298;53.638;9.876;2023-05-10T11:31:21;13.63;;;8.52;;
56399;SDS011;42298;53.638;9.876;2023-05-10T11:33:49;12.40;;;8.57;;
56399;SDS011;42298;53.638;9.876;2023-05-10T11:36:17;12.48;;;8.52;;
56399;SDS011;42298;53.638;9.876;2023-05-10T11:38:44;12.75;;;7.82;;
56399;SDS011;42298;53.638;9.876;2023-05-10T11:41:11;14.70;;;9.23;;
56399;SDS011;42298;53.638;9.876;2023-05-10T11:43:40;13.02;;;8.98;;
56399;SDS011;42298;53.638;9.876;2023-05-10T11:46:10;13.48;;;8.70;;
56399;SDS011;42298;53.638;9.876;2023-05-10T11:48:40;15.05;;;9.40;;
56399;SDS011;42298;53.638;9.876;2023-05-10T11:51:09;14.65;;;9.82;;
56399;SDS011;42298;53.638;9.876;2023-05-10T11:53:38;13.15;;;9.57;;
56399;SDS011;42298;53.638;9.876;2023-05-10T11:56:04;13.70;;;9.30;;
56399;SDS011;42298;53.638;9.876;2023-05-10T11:58:31;12.98;;;8.35;;
56399;SDS011;42298;53.638;9.876;2023-05-10T12:00:58;14.85;;;9.32;;
56399;SDS011;42298;53.638;9.876;2023-05-10T12:03:27;13.65;;;8.85;;
56399;SDS011;42298;53.638;9.876;2023-05-10T12:05:53;14.48;;;8.73;;
56399;SDS011;42298;53.638;9.876;2023-05-10T12:08:22;13.73;;;8.88;;
56399;SDS011;42298;53.638;9.876;2023-05-10T12:10:49;11.95;;;7.70;;
56399;SDS011;42298;53.638;9.876;2023-05-10T12:13:16;12.02;;;8.25;;
56399;SDS011;42298;53.638;9.876;2023-05-10T12:15:42;11.63;;;6.57;;
56399;SDS011;42298;53.638;9.876;2023-05-10T12:18:08;12.50;;;7.80;;
56399;SDS011;42298;53.638;9.876;2023-05-10T12:20:35;14.95;;;7.45;;
56399;SDS011;42298;53.638;9.876;2023-05-10T12:23:01;11.55;;;7.32;;
56399;SDS011;42298;53.638;9.876;2023-05-10T12:25:33;9.98;;;6.45;;
56399;SDS011;42298;53.638;9.876;2023-05-10T12:28:00;10.82;;;7.07;;
56399;SDS011;42298;53.638;9.876;2023-05-10T12:30:30;11.35;;;6.97;;
56399;SDS011;42298;53.638;9.876;2023-05-10T12:33:07;12.05;;;6.00;;
56399;SDS011;42298;53.638;9.876;2023-05-10T12:35:43;11.52;;;7.43;;
56399;SDS011;42298;53.638;9.876;2023-05-10T12:38:27;10.57;;;6.50;;
56399;SDS011;42298;53.638;9.876;2023-05-10T12:40:58;12.35;;;6.97;;
56399;SDS011;42298;53.638;9.876;2023-05-10T12:43:25;10.10;;;6.63;;
56399;SDS011;42298;53.638;9.876;2023-05-10T12:45:50;11.20;;;7.15;;
56399;SDS011;42298;53.638;9.876;2023-05-10T12:48:16;12.43;;;7.57;;
56399;SDS011;42298;53.638;9.876;2023-05-10T12:50:43;14.05;;;7.60;;
56399;SDS011;42298;53.638;9.876;2023-05-10T12:53:08;11.35;;;7.28;;
56399;SDS011;42298;53.638;9.876;2023-05-10T12:55:33;11.35;;;7.32;;
56399;SDS011;42298;53.638;9.876;2023-05-10T12:57:59;9.95;;;6.30;;
56399;SDS011;42298;53.638;9.876;2023-05-10T13:00:24;9.30;;;6.15;;
56399;SDS011;42298;53.638;9.876;2023-05-10T13:02:50;11.05;;;6.57;;
56399;SDS011;42298;53.638;9.876;2023-05-10T13:05:15;9.50;;;5.75;;
56399;SDS011;42298;53.638;9.876;2023-05-10T13:07:40;12.00;;;6.60;;
56399;SDS011;42298;53.638;9.876;2023-05-10T13:10:06;12.27;;;7.82;;
56399;SDS011;42298;53.638;9.876;2023-05-10T13:12:32;10.63;;;6.43;;
56399;SDS011;42298;53.638;9.876;2023-05-10T13:14:57;9.18;;;6.13;;
56399;SDS011;42298;53.638;9.876;2023-05-10T13:17:23;9.65;;;5.70;;
56399;SDS011;42298;53.638;9.876;2023-05-10T13:19:48;8.75;;;5.65;;
56399;SDS011;42298;53.638;9.876;2023-05-10T13:22:13;10.73;;;6.15;;
56399;SDS011;42298;53.638;9.876;2023-05-10T13:24:39;10.35;;;6.65;;
56399;SDS011;42298;53.638;9.876;2023-05-10T13:27:04;10.55;;;6.07;;
56399;SDS011;42298;53.638;9.876;2023-05-10T13:29:29;10.82;;;7.10;;
56399;SDS011;42298;53.638;9.876;2023-05-10T13:31:55;11.45;;;7.15;;
56399;SDS011;42298;53.638;9.876;2023-05-10T13:34:20;11.38;;;7.53;;
56399;SDS011;42298;53.638;9.876;2023-05-10T13:36:46;10.93;;;7.47;;
56399;SDS011;42298;53.638;9.876;2023-05-10T13:39:12;12.32;;;7.47;;
56399;SDS011;42298;53.638;9.876;2023-05-10T13:41:37;11.48;;;7.45;;
56399;SDS011;42298;53.638;9.876;2023-05-10T13:44:03;12.23;;;7.30;;
56399;SDS011;42298;53.638;9.876;2023-05-10T13:46:29;12.05;;;7.93;;
56399;SDS011;42298;53.638;9.876;2023-05-10T13:48:55;12.00;;;7.63;;
56399;SDS011;42298;53.638;9.876;2023-05-10T13:51:21;13.32;;;8.02;;
56399;SDS011;42298;53.638;9.876;2023-05-10T13:53:47;13.55;;;8.70;;
56399;SDS011;42298;53.638;9.876;2023-05-10T13:56:12;12.25;;;7.88;;
56399;SDS011;42298;53.638;9.876;2023-05-10T13:58:38;11.10;;;6.57;;
56399;SDS011;42298;53.638;9.876;2023-05-10T14:01:03;10.48;;;6.40;;
56399;SDS011;42298;53.638;9.876;2023-05-10T14:03:29;11.27;;;7.60;;
56399;SDS011;42298;53.638;9.876;2023-05-10T14:05:55;10.82;;;7.15;;
56399;SDS011;42298;53.638;9.876;2023-05-10T14:08:20;13.68;;;7.60;;
56399;SDS011;42298;53.638;9.876;2023-05-10T14:10:46;10.30;;;6.93;;
56399;SDS011;42298;53.638;9.876;2023-05-10T14:13:13;10.15;;;7.78;;
56399;SDS011;42298;53.638;9.876;2023-05-10T14:15:38;11.90;;;7.75;;
56399;SDS011;42298;53.638;9.876;2023-05-10T14:18:03;11.85;;;7.70;;
56399;SDS011;42298;53.638;9.876;2023-05-10T14:20:29;11.25;;;7.38;;
56399;SDS011;42298;53.638;9.876;2023-05-10T14:22:54;10.32;;;7.03;;
56399;SDS011;42298;53.638;9.876;2023-05-10T14:25:20;9.40;;;6.43;;
56399;SDS011;42298;53.638;9.876;2023-05-10T14:27:46;10.25;;;6.65;;
56399;SDS011;42298;53.638;9.876;2023-05-10T14:30:12;10.38;;;6.50;;
56399;SDS011;42298;53.638;9.876;2023-05-10T14:32:38;10.30;;;6.95;;
56399;SDS011;42298;53.638;9.876;2023-05-10T14:35:03;12.25;;;6.53;;
56399;SDS011;42298;53.638;9.876;2023-05-10T14:37:30;10.77;;;6.53;;
56399;SDS011;42298;53.638;9.876;2023-05-10T14:39:56;11.25;;;7.22;;
56399;SDS011;42298;53.638;9.876;2023-05-10T14:42:22;9.38;;;6.72;;
56399;SDS011;42298;53.638;9.876;2023-05-10T14:44:47;10.48;;;6.72;;
56399;SDS011;42298;53.638;9.876;2023-05-10T14:47:13;9.88;;;6.45;;
56399;SDS011;42298;53.638;9.876;2023-05-10T14:49:42;9.48;;;6.22;;
56399;SDS011;42298;53.638;9.876;2023-05-10T14:52:07;10.00;;;6.53;;
56399;SDS011;42298;53.638;9.876;2023-05-10T14:54:32;9.93;;;6.80;;
56399;SDS011;42298;53.638;9.876;2023-05-10T14:57:00;10.52;;;6.50;;
56399;SDS011;42298;53.638;9.876;2023-05-10T14:59:25;10.45;;;6.70;;
56399;SDS011;42298;53.638;9.876;2023-05-10T15:01:54;9.02;;;5.75;;
56399;SDS011;42298;53.638;9.876;2023-05-10T15:04:20;9.05;;;5.82;;
56399;SDS011;42298;53.638;9.876;2023-05-10T15:06:46;9.38;;;6.03;;
56399;SDS011;42298;53.638;9.876;2023-05-10T15:09:11;9.43;;;5.90;;
56399;SDS011;42298;53.638;9.876;2023-05-10T15:11:37;9.43;;;5.80;;
56399;SDS011;42298;53.638;9.876;2023-05-10T15:14:02;9.82;;;6.22;;
56399;SDS011;42298;53.638;9.876;2023-05-10T15:16:27;10.98;;;6.75;;
56399;SDS011;42298;53.638;9.876;2023-05-10T15:18:52;10.10;;;6.30;;
56399;SDS011;42298;53.638;9.876;2023-05-10T15:21:18;10.30;;;6.93;;
56399;SDS011;42298;53.638;9.876;2023-05-10T15:23:44;11.00;;;6.90;;
56399;SDS011;42298;53.638;9.876;2023-05-10T15:26:09;11.50;;;6.18;;
56399;SDS011;42298;53.638;9.876;2023-05-10T15:28:35;9.63;;;6.18;;
56399;SDS011;42298;53.638;9.876;2023-05-10T15:31:00;9.43;;;5.78;;